sensor_id;sensor_type;location;lat;lon;timestamp;pressure;altitude;pressure_sealevel;temperature;humidity
79075;BME280;68476;42.710;23.388;2023-05-23T00:00:56;95511.06;;;8.67;100.00
79075;BME280;68476;42.710;23.388;2023-05-23T00:03:25;95507.34;;;8.93;100.00
79075;BME280;68476;42.710;23.388;2023-05-23T00:05:51;95514.53;;;8.81;100.00
79075;BME280;68476;42.710;23.388;2023-05-23T00:08:17;95507.31;;;8.68;100.00
79075;BME280;68476;42.710;23.388;2023-05-23T00:10:43;95508.97;;;8.69;100.00
79075;BME280;68476;42.710;23.388;2023-05-23T00:13:08;95505.59;;;8.74;100.00
79075;BME280;68476;42.710;23.388;2023-05-23T00:15:34;95498.00;;;8.83;100.00
79075;BME280;68476;42.710;23.388;2023-05-23T00:18:02;95500.41;;;8.98;100.00
79075;BME280;68476;42.710;23.388;2023-05-23T00:20:28;95497.81;;;9.09;100.00
79075;BME280;68476;42.710;23.388;2023-05-23T00:22:54;95508.72;;;9.03;100.00
79075;BME280;68476;42.710;23.388;2023-05-23T00:25:23;95517.84;;;8.83;100.00
79075;BME280;68476;42.710;23.388;2023-05-23T00:27:48;95508.50;;;8.72;100.00
79075;BME280;68476;42.710;23.388;2023-05-23T00:30:14;95504.75;;;8.73;100.00
79075;BME280;68476;42.710;23.388;2023-05-23T00:32:39;95501.38;;;8.78;100.00
79075;BME280;68476;42.710;23.388;2023-05-23T00:35:05;95509.81;;;8.63;100.00
79075;BME280;68476;42.710;23.388;2023-05-23T00:37:30;95507.72;;;8.65;100.00
79075;BME280;68476;42.710;23.388;2023-05-23T00:39:56;95503.53;;;8.69;100.00
79075;BME280;68476;42.710;23.388;2023-05-23T00:42:21;95506.28;;;8.62;100.00
79075;BME280;68476;42.710;23.388;2023-05-23T00:44:47;95507.31;;;8.68;100.00
79075;BME280;68476;42.710;23.388;2023-05-23T00:47:12;95495.13;;;8.77;100.00
79075;BME280;68476;42.710;23.388;2023-05-23T00:49:38;95492.06;;;8.67;100.00
79075;BME280;68476;42.710;23.388;2023-05-23T00:52:05;95490.59;;;8.64;100.00
79075;BME280;68476;42.710;23.388;2023-05-23T00:54:31;95498.94;;;8.70;100.00
79075;BME280;68476;42.710;23.388;2023-05-23T00:56:58;95504.75;;;8.73;100.00
79075;BME280;68476;42.710;23.388;2023-05-23T00:59:24;95502.84;;;8.81;100.00
79075;BME280;68476;42.710;23.388;2023-05-23T01:01:50;95512.66;;;8.82;100.00
79075;BME280;68476;42.710;23.388;2023-05-23T01:04:17;95507.16;;;8.56;100.00
79075;BME280;68476;42.710;23.388;2023-05-23T01:06:44;95512.69;;;8.29;100.00
79075;BME280;68476;42.710;23.388;2023-05-23T01:09:12;95507.31;;;8.23;100.00
79075;BME280;68476;42.710;23.388;2023-05-23T01:12:12;95508.91;;;8.30;100.00
79075;BME280;68476;42.710;23.388;2023-05-23T01:18:05;95505.78;;;8.33;100.00
79075;BME280;68476;42.710;23.388;2023-05-23T01:20:54;95509.94;;;8.36;100.00
79075;BME280;68476;42.710;23.388;2023-05-23T01:26:30;95504.38;;;8.17;100.00
79075;BME280;68476;42.710;23.388;2023-05-23T01:29:07;95509.16;;;8.22;100.00
79075;BME280;68476;42.710;23.388;2023-05-23T01:31:36;95508.00;;;8.05;100.00
79075;BME280;68476;42.710;23.388;2023-05-23T01:34:03;95507.09;;;8.17;100.00
79075;BME280;68476;42.710;23.388;2023-05-23T01:36:32;95505.63;;;8.22;100.00
79075;BME280;68476;42.710;23.388;2023-05-23T01:38:59;95505.81;;;8.27;100.00
79075;BME280;68476;42.710;23.388;2023-05-23T01:41:25;95506.19;;;8.30;100.00
79075;BME280;68476;42.710;23.388;2023-05-23T01:43:53;95494.78;;;8.22;100.00
79075;BME280;68476;42.710;23.388;2023-05-23T01:46:20;95493.78;;;8.09;100.00
79075;BME280;68476;42.710;23.388;2023-05-23T01:48:46;95493.09;;;8.21;100.00
79075;BME280;68476;42.710;23.388;2023-05-23T01:51:13;95492.50;;;8.18;100.00
79075;BME280;68476;42.710;23.388;2023-05-23T01:53:39;95492.31;;;8.07;100.00
79075;BME280;68476;42.710;23.388;2023-05-23T01:56:05;95500.94;;;7.97;100.00
79075;BME280;68476;42.710;23.388;2023-05-23T01:58:30;95498.22;;;7.97;100.00
79075;BME280;68476;42.710;23.388;2023-05-23T02:00:56;95504.31;;;7.85;100.00
79075;BME280;68476;42.710;23.388;2023-05-23T02:03:21;95500.09;;;7.90;100.00
79075;BME280;68476;42.710;23.388;2023-05-23T02:05:47;95496.13;;;7.99;100.00
79075;BME280;68476;42.710;23.388;2023-05-23T02:08:12;95496.50;;;8.09;100.00
79075;BME280;68476;42.710;23.388;2023-05-23T02:10:37;95500.94;;;7.97;100.00
79075;BME280;68476;42.710;23.388;2023-05-23T02:13:03;95476.94;;;7.87;100.00
79075;BME280;68476;42.710;23.388;2023-05-23T02:15:28;95486.72;;;8.01;100.00
79075;BME280;68476;42.710;23.388;2023-05-23T02:17:54;95501.69;;;8.17;100.00
79075;BME280;68476;42.710;23.388;2023-05-23T02:20:19;95498.34;;;8.15;100.00
79075;BME280;68476;42.710;23.388;2023-05-23T02:22:45;95500.88;;;8.10;100.00
79075;BME280;68476;42.710;23.388;2023-05-23T02:25:10;95499.41;;;8.08;100.00
79075;BME280;68476;42.710;23.388;2023-05-23T02:27:36;95496.94;;;8.06;100.00
79075;BME280;68476;42.710;23.388;2023-05-23T02:30:01;95490.84;;;8.11;100.00
79075;BME280;68476;42.710;23.388;2023-05-23T02:32:27;95495.47;;;8.10;100.00
79075;BME280;68476;42.710;23.388;2023-05-23T02:34:53;95497.06;;;8.18;100.00
79075;BME280;68476;42.710;23.388;2023-05-23T02:37:19;95492.91;;;8.15;100.00
79075;BME280;68476;42.710;23.388;2023-05-23T02:39:44;95489.94;;;8.24;100.00
79075;BME280;68476;42.710;23.388;2023-05-23T02:42:09;95492.88;;;8.22;100.00
79075;BME280;68476;42.710;23.388;2023-05-23T02:44:35;95496.44;;;8.23;100.00
79075;BME280;68476;42.710;23.388;2023-05-23T02:47:00;95488.91;;;8.25;100.00
79075;BME280;68476;42.710;23.388;2023-05-23T02:49:25;95495.16;;;8.32;100.00
79075;BME280;68476;42.710;23.388;2023-05-23T02:51:51;95488.47;;;8.28;100.00
79075;BME280;68476;42.710;23.388;2023-05-23T02:54:16;95491.53;;;8.38;100.00
79075;BME280;68476;42.710;23.388;2023-05-23T02:56:43;95491.31;;;8.46;100.00
79075;BME280;68476;42.710;23.388;2023-05-23T02:59:09;95493.88;;;8.35;100.00
79075;BME280;68476;42.710;23.388;2023-05-23T03:01:36;95480.25;;;8.48;100.00
79075;BME280;68476;42.710;23.388;2023-05-23T03:04:01;95482.66;;;8.63;100.00
79075;BME280;68476;42.710;23.388;2023-05-23T03:06:27;95484.81;;;8.54;100.00
79075;BME280;68476;42.710;23.388;2023-05-23T03:08:52;95482.31;;;8.53;100.00
79075;BME280;68476;42.710;23.388;2023-05-23T03:11:18;95487.13;;;8.44;100.00
79075;BME280;68476;42.710;23.388;2023-05-23T03:13:43;95494.09;;;8.33;100.00
79075;BME280;68476;42.710;23.388;2023-05-23T03:16:08;95484.50;;;8.24;100.00
79075;BME280;68476;42.710;23.388;2023-05-23T03:18:35;95491.03;;;8.23;100.00
79075;BME280;68476;42.710;23.388;2023-05-23T03:21:01;95488.09;;;8.17;100.00
79075;BME280;68476;42.710;23.388;2023-05-23T03:23:27;95499.72;;;8.31;100.00
79075;BME280;68476;42.710;23.388;2023-05-23T03:25:53;95494.97;;;8.20;100.00
79075;BME280;68476;42.710;23.388;2023-05-23T03:28:18;95498.91;;;8.31;100.00
79075;BME280;68476;42.710;23.388;2023-05-23T03:30:43;95502.22;;;8.40;100.00
79075;BME280;68476;42.710;23.388;2023-05-23T03:33:09;95496.56;;;8.48;100.00
79075;BME280;68476;42.710;23.388;2023-05-23T03:35:35;95507.88;;;8.31;100.00
79075;BME280;68476;42.710;23.388;2023-05-23T03:38:00;95511.03;;;8.28;100.00
79075;BME280;68476;42.710;23.388;2023-05-23T03:40:26;95512.47;;;8.31;100.00
79075;BME280;68476;42.710;23.388;2023-05-23T03:43:07;95512.00;;;8.47;100.00
79075;BME280;68476;42.710;23.388;2023-05-23T03:45:32;95510.53;;;8.52;100.00
79075;BME280;68476;42.710;23.388;2023-05-23T03:47:58;95510.69;;;8.63;100.00
79075;BME280;68476;42.710;23.388;2023-05-23T03:50:24;95520.66;;;8.70;100.00
79075;BME280;68476;42.710;23.388;2023-05-23T03:52:50;95520.88;;;8.68;100.00
79075;BME280;68476;42.710;23.388;2023-05-23T03:55:15;95518.75;;;8.70;100.00
79075;BME280;68476;42.710;23.388;2023-05-23T03:57:40;95518.28;;;8.80;100.00
79075;BME280;68476;42.710;23.388;2023-05-23T04:00:06;95518.94;;;8.75;100.00
79075;BME280;68476;42.710;23.388;2023-05-23T04:02:38;95525.13;;;8.57;99.82
79075;BME280;68476;42.710;23.388;2023-05-23T04:05:06;95512.38;;;8.58;99.90
79075;BME280;68476;42.710;23.388;2023-05-23T04:07:32;95513.53;;;8.75;99.63
79075;BME280;68476;42.710;23.388;2023-05-23T04:10:01;95508.66;;;8.84;99.85
79075;BME280;68476;42.710;23.388;2023-05-23T04:12:26;95509.63;;;8.97;99.17
79075;BME280;68476;42.710;23.388;2023-05-23T04:14:52;95517.88;;;9.08;98.72
79075;BME280;68476;42.710;23.388;2023-05-23T04:17:17;95512.00;;;8.86;99.12
79075;BME280;68476;42.710;23.388;2023-05-23T04:19:43;95519.13;;;9.13;99.34
79075;BME280;68476;42.710;23.388;2023-05-23T04:22:08;95520.06;;;9.25;98.32
79075;BME280;68476;42.710;23.388;2023-05-23T04:24:34;95513.25;;;9.16;97.78
79075;BME280;68476;42.710;23.388;2023-05-23T04:26:59;95520.69;;;9.27;98.20
79075;BME280;68476;42.710;23.388;2023-05-23T04:29:25;95522.28;;;9.35;97.28
79075;BME280;68476;42.710;23.388;2023-05-23T04:31:52;95524.34;;;9.39;97.50
79075;BME280;68476;42.710;23.388;2023-05-23T04:34:19;95519.78;;;9.33;97.66
79075;BME280;68476;42.710;23.388;2023-05-23T04:36:46;95518.75;;;9.53;97.21
79075;BME280;68476;42.710;23.388;2023-05-23T04:39:12;95511.88;;;9.50;96.40
79075;BME280;68476;42.710;23.388;2023-05-23T04:41:38;95526.28;;;9.76;96.15
79075;BME280;68476;42.710;23.388;2023-05-23T04:44:04;95536.38;;;9.76;93.75
79075;BME280;68476;42.710;23.388;2023-05-23T04:46:30;95533.63;;;9.76;94.64
79075;BME280;68476;42.710;23.388;2023-05-23T04:48:56;95539.84;;;9.83;95.06
79075;BME280;68476;42.710;23.388;2023-05-23T04:51:22;95533.72;;;10.06;94.00
79075;BME280;68476;42.710;23.388;2023-05-23T04:53:50;95526.09;;;10.33;92.50
79075;BME280;68476;42.710;23.388;2023-05-23T04:56:16;95529.75;;;10.46;91.94
79075;BME280;68476;42.710;23.388;2023-05-23T04:58:42;95535.91;;;10.53;91.62
79075;BME280;68476;42.710;23.388;2023-05-23T05:01:09;95531.91;;;10.56;91.66
79075;BME280;68476;42.710;23.388;2023-05-23T05:03:36;95532.88;;;10.24;93.16
79075;BME280;68476;42.710;23.388;2023-05-23T05:06:02;95534.84;;;10.17;94.38
79075;BME280;68476;42.710;23.388;2023-05-23T05:08:27;95547.56;;;9.86;95.35
79075;BME280;68476;42.710;23.388;2023-05-23T05:10:53;95544.84;;;10.05;94.96
79075;BME280;68476;42.710;23.388;2023-05-23T05:13:19;95542.50;;;10.08;95.02
79075;BME280;68476;42.710;23.388;2023-05-23T05:15:45;95542.25;;;9.91;95.02
79075;BME280;68476;42.710;23.388;2023-05-23T05:18:10;95553.19;;;10.10;94.58
79075;BME280;68476;42.710;23.388;2023-05-23T05:20:36;95556.56;;;10.24;94.89
79075;BME280;68476;42.710;23.388;2023-05-23T05:23:01;95556.50;;;10.30;93.97
79075;BME280;68476;42.710;23.388;2023-05-23T05:25:27;95547.44;;;10.55;92.12
79075;BME280;68476;42.710;23.388;2023-05-23T05:27:57;95546.53;;;10.43;92.28
79075;BME280;68476;42.710;23.388;2023-05-23T05:30:22;95547.44;;;10.55;92.92
79075;BME280;68476;42.710;23.388;2023-05-23T05:32:48;95547.09;;;10.94;89.92
79075;BME280;68476;42.710;23.388;2023-05-23T05:35:13;95539.47;;;11.15;89.69
79075;BME280;68476;42.710;23.388;2023-05-23T05:37:39;95533.31;;;10.77;89.63
79075;BME280;68476;42.710;23.388;2023-05-23T05:40:05;95546.78;;;10.72;91.85
79075;BME280;68476;42.710;23.388;2023-05-23T05:42:32;95545.97;;;11.02;92.12
79075;BME280;68476;42.710;23.388;2023-05-23T05:44:58;95554.13;;;11.02;91.17
79075;BME280;68476;42.710;23.388;2023-05-23T05:47:23;95553.53;;;11.00;90.95
79075;BME280;68476;42.710;23.388;2023-05-23T05:49:48;95552.97;;;11.09;91.03
79075;BME280;68476;42.710;23.388;2023-05-23T05:52:14;95550.06;;;11.47;88.60
79075;BME280;68476;42.710;23.388;2023-05-23T05:54:39;95553.53;;;11.00;89.34
79075;BME280;68476;42.710;23.388;2023-05-23T05:57:05;95550.75;;;10.57;91.73
79075;BME280;68476;42.710;23.388;2023-05-23T05:59:30;95558.44;;;10.79;90.86
79075;BME280;68476;42.710;23.388;2023-05-23T06:01:55;95551.53;;;11.49;88.30
79075;BME280;68476;42.710;23.388;2023-05-23T06:04:21;95554.25;;;11.61;87.44
79075;BME280;68476;42.710;23.388;2023-05-23T06:06:46;95560.13;;;11.22;88.85
79075;BME280;68476;42.710;23.388;2023-05-23T06:09:11;95563.31;;;11.19;89.04
79075;BME280;68476;42.710;23.388;2023-05-23T06:11:37;95556.50;;;11.52;87.88
79075;BME280;68476;42.710;23.388;2023-05-23T06:14:07;95550.59;;;12.03;86.33
79075;BME280;68476;42.710;23.388;2023-05-23T06:16:33;95542.28;;;11.50;88.17
79075;BME280;68476;42.710;23.388;2023-05-23T06:18:59;95558.94;;;12.08;86.28
79075;BME280;68476;42.710;23.388;2023-05-23T06:21:24;95555.34;;;11.96;85.87
79075;BME280;68476;42.710;23.388;2023-05-23T06:23:49;95559.22;;;11.76;87.54
79075;BME280;68476;42.710;23.388;2023-05-23T06:26:16;95557.84;;;12.21;86.48
79075;BME280;68476;42.710;23.388;2023-05-23T06:28:41;95555.34;;;12.20;85.10
79075;BME280;68476;42.710;23.388;2023-05-23T06:31:07;95548.91;;;12.26;83.68
79075;BME280;68476;42.710;23.388;2023-05-23T06:33:35;95546.78;;;12.40;83.22
79075;BME280;68476;42.710;23.388;2023-05-23T06:36:01;95550.25;;;12.64;83.21
79075;BME280;68476;42.710;23.388;2023-05-23T06:38:28;95542.56;;;12.90;82.27
79075;BME280;68476;42.710;23.388;2023-05-23T06:40:55;95549.66;;;12.74;82.39
79075;BME280;68476;42.710;23.388;2023-05-23T06:43:20;95548.25;;;13.17;81.90
79075;BME280;68476;42.710;23.388;2023-05-23T06:45:46;95548.56;;;13.04;82.77
79075;BME280;68476;42.710;23.388;2023-05-23T06:48:12;95539.94;;;13.12;81.05
79075;BME280;68476;42.710;23.388;2023-05-23T06:50:37;95545.19;;;12.85;82.77
79075;BME280;68476;42.710;23.388;2023-05-23T06:53:03;95542.31;;;12.91;81.56
79075;BME280;68476;42.710;23.388;2023-05-23T06:55:28;95539.34;;;12.93;82.03
79075;BME280;68476;42.710;23.388;2023-05-23T06:57:54;95535.13;;;13.02;81.76
79075;BME280;68476;42.710;23.388;2023-05-23T07:00:20;95541.13;;;13.16;82.15
79075;BME280;68476;42.710;23.388;2023-05-23T07:02:45;95537.47;;;13.39;80.21
79075;BME280;68476;42.710;23.388;2023-05-23T07:05:13;95532.00;;;13.28;80.44
79075;BME280;68476;42.710;23.388;2023-05-23T07:07:38;95531.84;;;14.02;78.14
79075;BME280;68476;42.710;23.388;2023-05-23T07:10:04;95534.22;;;13.77;79.63
79075;BME280;68476;42.710;23.388;2023-05-23T07:12:30;95535.59;;;14.13;78.13
79075;BME280;68476;42.710;23.388;2023-05-23T07:14:55;95532.56;;;13.93;79.99
79075;BME280;68476;42.710;23.388;2023-05-23T07:17:21;95533.06;;;14.51;76.85
79075;BME280;68476;42.710;23.388;2023-05-23T07:19:46;95526.38;;;14.86;75.12
79075;BME280;68476;42.710;23.388;2023-05-23T07:22:12;95507.56;;;14.51;77.15
79075;BME280;68476;42.710;23.388;2023-05-23T07:24:37;95511.81;;;14.41;77.17
79075;BME280;68476;42.710;23.388;2023-05-23T07:27:02;95511.47;;;14.32;77.66
79075;BME280;68476;42.710;23.388;2023-05-23T07:29:28;95506.19;;;14.70;77.48
79075;BME280;68476;42.710;23.388;2023-05-23T07:31:54;95484.66;;;14.84;75.53
79075;BME280;68476;42.710;23.388;2023-05-23T07:34:20;95503.25;;;14.77;76.53
79075;BME280;68476;42.710;23.388;2023-05-23T07:36:46;95501.44;;;14.43;74.99
79075;BME280;68476;42.710;23.388;2023-05-23T07:39:11;95506.88;;;14.83;75.80
79075;BME280;68476;42.710;23.388;2023-05-23T07:41:37;95496.41;;;15.07;74.32
79075;BME280;68476;42.710;23.388;2023-05-23T07:44:02;95498.94;;;15.14;77.09
79075;BME280;68476;42.710;23.388;2023-05-23T07:46:28;95485.22;;;15.14;76.34
79075;BME280;68476;42.710;23.388;2023-05-23T07:48:53;95492.31;;;15.37;75.41
79075;BME280;68476;42.710;23.388;2023-05-23T07:51:19;95497.38;;;15.88;73.89
79075;BME280;68476;42.710;23.388;2023-05-23T07:53:46;95499.16;;;15.72;75.26
79075;BME280;68476;42.710;23.388;2023-05-23T07:56:11;95492.31;;;15.42;75.81
79075;BME280;68476;42.710;23.388;2023-05-23T07:58:37;95489.06;;;15.45;74.32
79075;BME280;68476;42.710;23.388;2023-05-23T08:01:02;95488.41;;;16.03;73.76
79075;BME280;68476;42.710;23.388;2023-05-23T08:03:27;95485.75;;;16.18;74.73
79075;BME280;68476;42.710;23.388;2023-05-23T08:05:53;95487.31;;;16.04;75.11
79075;BME280;68476;42.710;23.388;2023-05-23T08:08:18;95482.66;;;16.63;72.55
79075;BME280;68476;42.710;23.388;2023-05-23T08:10:44;95484.34;;;15.73;73.53
79075;BME280;68476;42.710;23.388;2023-05-23T08:13:10;95477.97;;;16.05;74.42
79075;BME280;68476;42.710;23.388;2023-05-23T08:15:35;95473.22;;;16.43;70.92
79075;BME280;68476;42.710;23.388;2023-05-23T08:18:02;95486.41;;;16.41;72.56
79075;BME280;68476;42.710;23.388;2023-05-23T08:20:27;95481.66;;;16.95;72.06
79075;BME280;68476;42.710;23.388;2023-05-23T08:23:00;95476.69;;;16.92;72.87
79075;BME280;68476;42.710;23.388;2023-05-23T08:25:27;95479.41;;;16.82;72.71
79075;BME280;68476;42.710;23.388;2023-05-23T08:27:56;95480.25;;;16.92;73.07
79075;BME280;68476;42.710;23.388;2023-05-23T08:30:23;95480.25;;;16.87;72.11
79075;BME280;68476;42.710;23.388;2023-05-23T08:32:50;95467.97;;;17.26;71.22
79075;BME280;68476;42.710;23.388;2023-05-23T08:35:16;95475.13;;;17.68;68.93
79075;BME280;68476;42.710;23.388;2023-05-23T08:37:42;95460.25;;;17.75;67.60
79075;BME280;68476;42.710;23.388;2023-05-23T08:40:21;95462.34;;;18.24;68.78
79075;BME280;68476;42.710;23.388;2023-05-23T08:42:50;95459.69;;;17.98;69.36
79075;BME280;68476;42.710;23.388;2023-05-23T08:45:16;95458.00;;;18.08;70.77
79075;BME280;68476;42.710;23.388;2023-05-23T08:47:43;95461.88;;;18.07;67.89
79075;BME280;68476;42.710;23.388;2023-05-23T08:50:14;95462.00;;;18.46;67.77
79075;BME280;68476;42.710;23.388;2023-05-23T08:52:54;95465.66;;;18.31;68.30
79075;BME280;68476;42.710;23.388;2023-05-23T08:55:27;95455.31;;;18.63;66.76
79075;BME280;68476;42.710;23.388;2023-05-23T08:57:53;95452.13;;;19.01;65.92
79075;BME280;68476;42.710;23.388;2023-05-23T09:00:20;95446.13;;;19.28;63.25
79075;BME280;68476;42.710;23.388;2023-05-23T09:02:46;95441.72;;;19.62;64.01
79075;BME280;68476;42.710;23.388;2023-05-23T09:05:12;95442.72;;;19.42;63.79
79075;BME280;68476;42.710;23.388;2023-05-23T09:07:44;95442.09;;;19.15;62.74
79075;BME280;68476;42.710;23.388;2023-05-23T09:10:11;95444.88;;;19.10;63.32
79075;BME280;68476;42.710;23.388;2023-05-23T09:12:37;95430.31;;;19.39;63.87
79075;BME280;68476;42.710;23.388;2023-05-23T09:15:06;95442.66;;;19.07;61.29
79075;BME280;68476;42.710;23.388;2023-05-23T09:17:35;95432.53;;;19.37;62.02
79075;BME280;68476;42.710;23.388;2023-05-23T09:20:01;95427.84;;;19.67;61.07
79075;BME280;68476;42.710;23.388;2023-05-23T09:22:27;95428.47;;;20.17;59.26
79075;BME280;68476;42.710;23.388;2023-05-23T09:24:54;95414.25;;;19.70;57.29
79075;BME280;68476;42.710;23.388;2023-05-23T09:27:20;95421.88;;;19.54;58.11
79075;BME280;68476;42.710;23.388;2023-05-23T09:29:45;95428.41;;;18.89;58.15
79075;BME280;68476;42.710;23.388;2023-05-23T09:32:18;95424.03;;;19.23;55.02
79075;BME280;68476;42.710;23.388;2023-05-23T09:35:03;95418.66;;;19.71;55.84
79075;BME280;68476;42.710;23.388;2023-05-23T09:37:30;95421.13;;;20.32;54.61
79075;BME280;68476;42.710;23.388;2023-05-23T09:39:58;95419.75;;;20.05;54.21
79075;BME280;68476;42.710;23.388;2023-05-23T09:42:25;95409.56;;;20.25;51.55
79075;BME280;68476;42.710;23.388;2023-05-23T09:44:55;95409.59;;;19.95;51.32
79075;BME280;68476;42.710;23.388;2023-05-23T09:47:20;95406.09;;;20.82;50.62
79075;BME280;68476;42.710;23.388;2023-05-23T09:49:46;95402.56;;;20.76;51.36
79075;BME280;68476;42.710;23.388;2023-05-23T09:52:12;95394.00;;;20.72;51.60
79075;BME280;68476;42.710;23.388;2023-05-23T09:54:38;95381.41;;;21.04;50.37
79075;BME280;68476;42.710;23.388;2023-05-23T09:57:08;95394.84;;;20.73;48.54
79075;BME280;68476;42.710;23.388;2023-05-23T09:59:38;95387.19;;;20.21;48.65
79075;BME280;68476;42.710;23.388;2023-05-23T10:02:06;95384.41;;;20.89;45.33
79075;BME280;68476;42.710;23.388;2023-05-23T10:04:33;95381.00;;;21.11;47.64
79075;BME280;68476;42.710;23.388;2023-05-23T10:07:06;95383.91;;;21.20;45.43
79075;BME280;68476;42.710;23.388;2023-05-23T10:09:37;95383.81;;;21.77;45.10
79075;BME280;68476;42.710;23.388;2023-05-23T10:12:35;95386.88;;;21.43;43.26
79075;BME280;68476;42.710;23.388;2023-05-23T10:15:04;95384.84;;;21.48;43.48
79075;BME280;68476;42.710;23.388;2023-05-23T10:20:28;95372.84;;;21.86;43.52
79075;BME280;68476;42.710;23.388;2023-05-23T10:22:58;95369.78;;;22.57;42.86
79075;BME280;68476;42.710;23.388;2023-05-23T10:25:23;95368.53;;;22.63;43.01
79075;BME280;68476;42.710;23.388;2023-05-23T10:27:52;95367.66;;;21.65;44.20
79075;BME280;68476;42.710;23.388;2023-05-23T10:30:18;95357.19;;;22.74;41.46
79075;BME280;68476;42.710;23.388;2023-05-23T10:32:44;95352.19;;;24.30;36.84
79075;BME280;68476;42.710;23.388;2023-05-23T10:38:17;95354.31;;;27.07;31.08
79075;BME280;68476;42.710;23.388;2023-05-23T10:46:49;95336.97;;;26.93;28.55
79075;BME280;68476;42.710;23.388;2023-05-23T10:49:15;95339.13;;;29.21;26.75
79075;BME280;68476;42.710;23.388;2023-05-23T10:51:41;95338.31;;;27.96;28.38
79075;BME280;68476;42.710;23.388;2023-05-23T10:54:09;95332.81;;;29.36;26.64
79075;BME280;68476;42.710;23.388;2023-05-23T10:56:36;95331.78;;;29.57;26.37
79075;BME280;68476;42.710;23.388;2023-05-23T10:59:04;95340.38;;;27.20;28.80
79075;BME280;68476;42.710;23.388;2023-05-23T11:01:30;95322.91;;;30.64;23.91
79075;BME280;68476;42.710;23.388;2023-05-23T11:03:56;95328.38;;;29.80;26.01
79075;BME280;68476;42.710;23.388;2023-05-23T11:06:28;95329.59;;;28.97;25.97
79075;BME280;68476;42.710;23.388;2023-05-23T11:09:01;95324.28;;;28.30;25.89
79075;BME280;68476;42.710;23.388;2023-05-23T11:14:13;95318.03;;;27.87;26.45
79075;BME280;68476;42.710;23.388;2023-05-23T11:16:42;95319.38;;;28.27;26.36
79075;BME280;68476;42.710;23.388;2023-05-23T11:21:43;95313.28;;;28.87;26.25
79075;BME280;68476;42.710;23.388;2023-05-23T11:24:09;95312.38;;;28.45;26.31
79075;BME280;68476;42.710;23.388;2023-05-23T11:26:35;95296.94;;;29.17;25.00
79075;BME280;68476;42.710;23.388;2023-05-23T11:29:00;95306.38;;;30.46;23.12
79075;BME280;68476;42.710;23.388;2023-05-23T11:31:28;95310.47;;;31.16;22.51
79075;BME280;68476;42.710;23.388;2023-05-23T11:33:54;95308.91;;;29.87;24.02
79075;BME280;68476;42.710;23.388;2023-05-23T11:36:22;95288.28;;;30.27;23.88
79075;BME280;68476;42.710;23.388;2023-05-23T11:38:51;95296.72;;;29.95;24.06
79075;BME280;68476;42.710;23.388;2023-05-23T11:41:17;95292.50;;;31.84;22.99
79075;BME280;68476;42.710;23.388;2023-05-23T11:43:50;95289.50;;;30.78;23.17
79075;BME280;68476;42.710;23.388;2023-05-23T11:46:16;95286.78;;;28.72;24.66
79075;BME280;68476;42.710;23.388;2023-05-23T11:48:45;95288.94;;;29.32;24.67
79075;BME280;68476;42.710;23.388;2023-05-23T11:51:10;95288.59;;;29.78;24.61
79075;BME280;68476;42.710;23.388;2023-05-23T11:53:36;95281.50;;;31.35;22.62
79075;BME280;68476;42.710;23.388;2023-05-23T11:56:03;95290.59;;;29.33;24.24
79075;BME280;68476;42.710;23.388;2023-05-23T11:58:36;95278.81;;;29.56;23.75
79075;BME280;68476;42.710;23.388;2023-05-23T12:01:07;95282.91;;;31.26;20.17
79075;BME280;68476;42.710;23.388;2023-05-23T12:03:33;95276.38;;;31.41;20.33
79075;BME280;68476;42.710;23.388;2023-05-23T12:05:59;95273.09;;;32.25;20.62
79075;BME280;68476;42.710;23.388;2023-05-23T12:08:26;95270.75;;;31.41;19.95
79075;BME280;68476;42.710;23.388;2023-05-23T12:10:56;95274.22;;;31.54;20.58
79075;BME280;68476;42.710;23.388;2023-05-23T12:13:23;95263.69;;;32.40;19.80
79075;BME280;68476;42.710;23.388;2023-05-23T12:15:52;95261.38;;;31.33;21.33
79075;BME280;68476;42.710;23.388;2023-05-23T12:18:19;95259.59;;;27.98;25.44
79075;BME280;68476;42.710;23.388;2023-05-23T12:20:44;95260.22;;;26.90;27.15
79075;BME280;68476;42.710;23.388;2023-05-23T12:23:20;95256.31;;;30.16;21.13
79075;BME280;68476;42.710;23.388;2023-05-23T12:25:51;95232.03;;;28.50;23.55
79075;BME280;68476;42.710;23.388;2023-05-23T12:28:17;95251.53;;;29.56;22.10
79075;BME280;68476;42.710;23.388;2023-05-23T12:30:43;95241.41;;;31.03;20.06
79075;BME280;68476;42.710;23.388;2023-05-23T12:33:09;95243.34;;;30.99;19.02
79075;BME280;68476;42.710;23.388;2023-05-23T12:35:34;95239.53;;;32.16;18.39
79075;BME280;68476;42.710;23.388;2023-05-23T12:38:00;95246.19;;;28.94;20.78
79075;BME280;68476;42.710;23.388;2023-05-23T12:40:26;95239.22;;;30.57;19.80
79075;BME280;68476;42.710;23.388;2023-05-23T12:42:55;95233.34;;;29.82;21.80
79075;BME280;68476;42.710;23.388;2023-05-23T12:45:23;95234.63;;;29.68;21.23
79075;BME280;68476;42.710;23.388;2023-05-23T12:47:48;95235.66;;;31.58;18.16
79075;BME280;68476;42.710;23.388;2023-05-23T12:50:14;95222.28;;;31.71;18.87
79075;BME280;68476;42.710;23.388;2023-05-23T12:52:39;95218.81;;;31.39;17.79
79075;BME280;68476;42.710;23.388;2023-05-23T12:55:06;95216.53;;;30.66;18.45
79075;BME280;68476;42.710;23.388;2023-05-23T12:57:33;95222.47;;;31.19;19.21
79075;BME280;68476;42.710;23.388;2023-05-23T12:59:58;95220.97;;;31.45;19.42
79075;BME280;68476;42.710;23.388;2023-05-23T13:02:24;95215.50;;;31.76;19.25
79075;BME280;68476;42.710;23.388;2023-05-23T13:04:49;95215.16;;;33.12;18.30
79075;BME280;68476;42.710;23.388;2023-05-23T13:07:15;95212.50;;;31.88;20.25
79075;BME280;68476;42.710;23.388;2023-05-23T13:09:40;95209.63;;;31.42;21.66
79075;BME280;68476;42.710;23.388;2023-05-23T13:12:06;95208.72;;;32.81;19.05